createdAt,value
2022-12-05T00:01:35.297Z,94661.22
2022-12-05T00:04:07.015Z,94671.59
2022-12-05T00:06:35.220Z,94677.09
2022-12-05T00:09:03.144Z,94682.78
2022-12-05T00:11:31.504Z,94674.66
2022-12-05T00:13:59.901Z,94667.44
2022-12-05T00:16:29.170Z,94684.50
2022-12-05T00:18:56.621Z,94679.41
2022-12-05T00:21:25.901Z,94688.91
2022-12-05T00:23:55.200Z,94686.63
2022-12-05T00:26:22.318Z,94681.38
2022-12-05T00:28:49.741Z,94672.91
2022-12-05T00:31:21.834Z,94674.13
2022-12-05T00:33:49.243Z,94668.16
2022-12-05T00:36:21.763Z,94671.09
2022-12-05T00:38:48.842Z,94677.06
2022-12-05T00:41:18.485Z,94673.22
2022-12-05T00:43:45.640Z,94685.53
2022-12-05T00:46:18.205Z,94693.97
2022-12-05T00:48:45.608Z,94689.50
2022-12-05T00:51:18.992Z,94701.50
2022-12-05T00:53:46.594Z,94698.94
2022-12-05T00:56:16.735Z,94710.44
2022-12-05T00:58:44.108Z,94726.19
2022-12-05T01:01:15.716Z,94732.47
2022-12-05T01:03:44.591Z,94733.91
2022-12-05T01:06:12.835Z,94736.44
2022-12-05T01:08:39.559Z,94736.56
2022-12-05T01:11:08.087Z,94741.13
2022-12-05T01:13:36.367Z,94731.09
2022-12-05T01:16:03.925Z,94745.41
2022-12-05T01:18:30.871Z,94750.78
2022-12-05T01:20:57.663Z,94764.41
2022-12-05T01:23:24.714Z,94762.06
2022-12-05T01:25:52.384Z,94751.91
2022-12-05T01:28:18.957Z,94754.44
2022-12-05T01:30:47.635Z,94751.28
2022-12-05T01:33:14.473Z,94752.41
2022-12-05T01:35:41.748Z,94748.66
2022-12-05T01:38:10.038Z,94746.94
2022-12-05T01:40:36.934Z,94748.53
2022-12-05T01:43:04.684Z,94767.88
2022-12-05T01:45:38.060Z,94777.94
2022-12-05T01:48:13.845Z,94798.78
2022-12-05T01:50:40.478Z,94800.81
2022-12-05T01:53:07.119Z,94809.84
2022-12-05T01:55:35.612Z,94814.00
2022-12-05T01:58:05.175Z,94820.69
2022-12-05T02:00:31.823Z,94827.44
2022-12-05T02:03:02.568Z,94838.59
2022-12-05T02:05:35.187Z,94825.88
2022-12-05T02:08:06.513Z,94827.09
2022-12-05T02:10:41.245Z,94825.16
2022-12-05T02:13:28.814Z,94834.09
2022-12-05T02:16:07.958Z,94834.09
2022-12-05T02:19:06.783Z,94833.06
2022-12-05T02:21:45.439Z,94841.91
2022-12-05T02:24:27.148Z,94850.25
2022-12-05T02:27:31.329Z,94855.75
2022-12-05T02:30:14.445Z,94855.28
2022-12-05T02:33:01.659Z,94861.19
2022-12-05T02:35:34.141Z,94872.09
2022-12-05T02:38:12.751Z,94870.78
2022-12-05T02:41:00.581Z,94861.78
2022-12-05T02:44:11.321Z,94861.47
2022-12-05T02:46:40.512Z,94869.88
2022-12-05T02:49:18.880Z,94885.56
2022-12-05T02:51:50.156Z,94878.47
2022-12-05T02:54:21.250Z,94884.53
2022-12-05T02:56:49.593Z,94879.47
2022-12-05T02:59:22.870Z,94880.13
2022-12-05T03:01:50.254Z,94885.31
2022-12-05T03:04:20.091Z,94884.03
2022-12-05T03:06:55.355Z,94891.22
2022-12-05T03:09:32.271Z,94892.38
2022-12-05T03:12:22.846Z,94890.50
2022-12-05T03:15:22.850Z,94887.75
2022-12-05T03:17:57.073Z,94894.44
2022-12-05T03:20:28.592Z,94898.25
2022-12-05T03:23:17.630Z,94907.56
2022-12-05T03:26:14.325Z,94905.03
2022-12-05T03:28:59.437Z,94917.72
2022-12-05T03:31:45.763Z,94918.53
2022-12-05T03:34:20.873Z,94916.34
2022-12-05T03:36:52.196Z,94919.16
2022-12-05T03:39:24.446Z,94933.69
2022-12-05T03:42:28.860Z,94930.81
2022-12-05T03:45:06.361Z,94927.84
2022-12-05T03:47:41.043Z,94928.56
2022-12-05T03:50:15.872Z,94925.84
2022-12-05T03:53:17.896Z,94927.19
2022-12-05T03:55:39.305Z,94929.44
2022-12-05T03:58:15.340Z,94931.97
2022-12-05T04:00:45.293Z,94930.91
2022-12-05T04:03:17.789Z,94918.66
2022-12-05T04:05:58.783Z,94924.34
2022-12-05T04:08:31.858Z,94920.47
2022-12-05T04:11:03.144Z,94923.22
2022-12-05T04:13:37.688Z,94927.81
2022-12-05T04:16:38.497Z,94932.84
2022-12-05T04:19:27.539Z,94931.72
2022-12-05T04:21:56.072Z,94927.47
2022-12-05T04:24:49.021Z,94930.41
2022-12-05T04:27:15.532Z,94931.56
2022-12-05T04:30:06.358Z,94930.25
2022-12-05T04:32:46.923Z,94928.31
2022-12-05T04:35:20.265Z,94930.25
2022-12-05T04:37:51.552Z,94928.59
2022-12-05T04:40:35.356Z,94919.41
2022-12-05T04:43:03.658Z,94918.19
2022-12-05T04:45:32.794Z,94931.41
2022-12-05T04:48:04.886Z,94929.94
2022-12-05T04:50:33.739Z,94930.16
2022-12-05T04:53:02.535Z,94935.56
2022-12-05T04:55:31.764Z,94924.88
2022-12-05T04:58:19.414Z,94923.31
2022-12-05T05:01:12.979Z,94913.16
2022-12-05T05:03:45.770Z,94918.97
2022-12-05T05:06:13.752Z,94917.44
2022-12-05T05:08:55.576Z,94927.63
2022-12-05T05:11:29.550Z,94924.16
2022-12-05T05:13:56.198Z,94928.13
2022-12-05T05:16:24.308Z,94915.03
2022-12-05T05:18:52.117Z,94908.34
2022-12-05T05:21:24.425Z,94912.38
2022-12-05T05:23:51.192Z,94912.28
2022-12-05T05:26:18.659Z,94911.53
2022-12-05T05:28:46.223Z,94928.91
2022-12-05T05:31:13.926Z,94931.66
2022-12-05T05:33:40.736Z,94931.38
2022-12-05T05:36:13.285Z,94938.88
2022-12-05T05:38:50.987Z,94933.50
2022-12-05T05:41:19.077Z,94927.91
2022-12-05T05:43:46.495Z,94922.72
2022-12-05T05:46:13.982Z,94922.09
2022-12-05T05:48:41.252Z,94926.28
2022-12-05T05:51:11.138Z,94920.56
2022-12-05T05:53:38.411Z,94930.88
2022-12-05T05:56:11.108Z,94936.13
2022-12-05T05:58:38.178Z,94944.59
2022-12-05T06:01:13.745Z,94952.31
2022-12-05T06:03:40.617Z,94955.47
2022-12-05T06:06:10.444Z,94973.88
2022-12-05T06:08:39.745Z,94976.53
2022-12-05T06:11:09.685Z,94979.00
2022-12-05T06:13:36.612Z,94979.22
2022-12-05T06:16:06.664Z,94979.09
2022-12-05T06:18:33.835Z,94976.09
2022-12-05T06:21:00.462Z,94979.72
2022-12-05T06:23:28.030Z,94979.00
2022-12-05T06:25:56.077Z,94986.84
2022-12-05T06:28:26.734Z,94980.94
2022-12-05T06:30:53.441Z,94990.09
2022-12-05T06:33:20.541Z,94987.47
2022-12-05T06:35:47.585Z,94981.28
2022-12-05T06:38:14.603Z,94981.88
2022-12-05T06:40:45.165Z,94978.84
2022-12-05T06:43:12.109Z,94976.19
2022-12-05T06:45:39.175Z,94971.38
2022-12-05T06:48:06.521Z,94979.81
2022-12-05T06:50:33.385Z,94986.22
2022-12-05T06:52:59.961Z,94988.66
2022-12-05T06:55:26.499Z,94993.56
2022-12-05T06:57:53.078Z,95003.34
2022-12-05T07:00:38.449Z,95006.91
2022-12-05T07:03:05.106Z,95009.13
2022-12-05T07:05:32.930Z,95008.53
2022-12-05T07:07:59.548Z,95011.69
2022-12-05T07:10:26.152Z,95021.84
2022-12-05T07:12:52.731Z,95016.66
2022-12-05T07:15:19.294Z,95014.66
2022-12-05T07:17:45.845Z,95015.56
2022-12-05T07:20:12.786Z,95016.22
2022-12-05T07:22:39.360Z,95021.72
2022-12-05T07:25:06.305Z,95027.31
2022-12-05T07:27:34.107Z,95028.25
2022-12-05T07:30:01.283Z,95033.22
2022-12-05T07:32:33.325Z,95038.13
2022-12-05T07:34:59.937Z,95030.56
2022-12-05T07:37:26.481Z,95033.44
2022-12-05T07:39:53.483Z,95037.31
2022-12-05T07:42:20.131Z,95033.78
2022-12-05T07:44:46.712Z,95042.75
2022-12-05T07:47:13.662Z,95040.25
2022-12-05T07:49:40.296Z,95039.25
2022-12-05T07:52:06.946Z,95048.34
2022-12-05T07:54:33.882Z,95045.91
2022-12-05T07:57:00.435Z,95043.59
2022-12-05T07:59:27.024Z,95045.97
2022-12-05T08:01:53.638Z,95047.91
2022-12-05T08:04:20.212Z,95047.81
2022-12-05T08:06:46.863Z,95046.38
2022-12-05T08:09:13.486Z,95058.59
2022-12-05T08:11:40.069Z,95052.72
2022-12-05T08:14:08.165Z,95061.88
2022-12-05T08:16:34.874Z,95060.03
2022-12-05T08:19:04.664Z,95064.41
2022-12-05T08:21:31.711Z,95066.56
2022-12-05T08:23:58.762Z,95069.44
2022-12-05T08:26:27.864Z,95067.28
2022-12-05T08:28:58.117Z,95074.91
2022-12-05T08:31:25.947Z,95076.13
2022-12-05T08:33:58.787Z,95084.31
2022-12-05T08:36:27.600Z,95089.41
2022-12-05T08:38:59.739Z,95080.00
2022-12-05T08:41:28.949Z,95088.25
2022-12-05T08:43:57.038Z,95091.41
2022-12-05T08:46:24.232Z,95088.88
2022-12-05T08:48:51.577Z,95086.44
2022-12-05T08:51:18.237Z,95094.06
2022-12-05T08:53:45.079Z,95077.50
2022-12-05T08:56:12.493Z,95082.28
2022-12-05T08:58:39.860Z,95091.84
2022-12-05T09:01:08.117Z,95093.69
2022-12-05T09:03:35.049Z,95093.47
2022-12-05T09:06:13.616Z,95099.91
2022-12-05T09:08:41.163Z,95100.19
2022-12-05T09:11:16.336Z,95105.13
2022-12-05T09:13:43.330Z,95116.13
2022-12-05T09:16:13.027Z,95110.81
2022-12-05T09:18:39.708Z,95112.75
2022-12-05T09:21:11.436Z,95117.13
2022-12-05T09:23:38.293Z,95126.41
2022-12-05T09:26:06.409Z,95123.34
2022-12-05T09:28:34.070Z,95126.44
2022-12-05T09:31:09.257Z,95126.09
2022-12-05T09:33:37.888Z,95132.63
2022-12-05T09:36:07.502Z,95135.28
2022-12-05T09:38:34.745Z,95133.25
2022-12-05T09:41:14.692Z,95137.13
2022-12-05T09:43:50.224Z,95140.59
2022-12-05T09:46:35.922Z,95145.06
2022-12-05T09:49:05.188Z,95147.22
2022-12-05T09:51:32.705Z,95147.31
2022-12-05T09:53:59.292Z,95145.59
2022-12-05T09:56:30.768Z,95148.34
2022-12-05T09:59:00.837Z,95150.28
2022-12-05T10:01:33.535Z,95145.59
2022-12-05T10:04:39.081Z,95154.88
2022-12-05T10:07:28.938Z,95142.44
2022-12-05T10:10:04.722Z,95147.63
2022-12-05T10:12:53.774Z,95145.59
2022-12-05T10:15:32.573Z,95147.50
2022-12-05T10:18:11.399Z,95141.28
2022-12-05T10:20:44.945Z,95146.59
2022-12-05T10:23:49.047Z,95141.41
2022-12-05T10:26:11.668Z,95137.50
2022-12-05T10:28:48.056Z,95143.53
2022-12-05T10:31:19.346Z,95149.34
2022-12-05T10:33:51.630Z,95143.84
2022-12-05T10:36:18.194Z,95140.16
2022-12-05T10:38:46.251Z,95142.41
2022-12-05T10:41:14.900Z,95143.44
2022-12-05T10:43:44.015Z,95140.78
2022-12-05T10:46:17.425Z,95134.22
2022-12-05T10:48:44.305Z,95137.47
2022-12-05T10:51:17.818Z,95134.09
2022-12-05T10:53:49.510Z,95130.84
2022-12-05T10:57:01.865Z,95126.06
2022-12-05T10:59:45.782Z,95128.13
2022-12-05T11:02:28.527Z,95125.72
2022-12-05T11:04:56.083Z,95126.03
2022-12-05T11:07:44.479Z,95128.69
2022-12-05T11:10:26.119Z,95127.03
2022-12-05T11:12:57.130Z,95129.88
2022-12-05T11:15:27.964Z,95128.97
2022-12-05T11:17:56.974Z,95128.31
2022-12-05T11:20:23.467Z,95131.41
2022-12-05T11:22:52.442Z,95138.13
2022-12-05T11:25:37.342Z,95131.00
2022-12-05T11:28:37.985Z,95130.00
2022-12-05T11:31:16.476Z,95131.63
2022-12-05T11:33:43.161Z,95130.09
2022-12-05T11:36:22.755Z,95135.41
2022-12-05T11:38:49.917Z,95132.19
2022-12-05T11:41:34.042Z,95122.81
2022-12-05T11:44:27.339Z,95130.03
2022-12-05T11:47:25.910Z,95130.25
2022-12-05T11:50:18.001Z,95124.97
2022-12-05T11:52:54.687Z,95119.13
2022-12-05T11:55:36.788Z,95121.09
2022-12-05T11:58:42.480Z,95125.25
2022-12-05T12:01:37.683Z,95126.66
2022-12-05T12:04:25.647Z,95129.91
2022-12-05T12:07:39.457Z,95127.63
2022-12-05T12:10:43.741Z,95126.97
2022-12-05T12:13:40.541Z,95117.75
2022-12-05T12:16:17.273Z,95123.38
2022-12-05T12:18:52.939Z,95128.91
2022-12-05T12:21:35.410Z,95121.72
2022-12-05T12:24:26.411Z,95128.50
2022-12-05T12:27:20.926Z,95120.19
2022-12-05T12:30:15.565Z,95120.38
2022-12-05T12:33:03.718Z,95119.03
2022-12-05T12:35:31.565Z,95115.69
2022-12-05T12:38:28.633Z,95122.25
2022-12-05T12:41:00.332Z,95114.91
2022-12-05T12:43:53.637Z,95119.28
2022-12-05T12:46:39.158Z,95118.13
2022-12-05T12:49:20.902Z,95123.25
2022-12-05T12:51:54.537Z,95126.53
2022-12-05T12:55:03.399Z,95130.72
2022-12-05T12:57:49.288Z,95125.97
2022-12-05T13:00:18.691Z,95120.53
2022-12-05T13:02:49.167Z,95112.53
2022-12-05T13:05:22.775Z,95114.13
2022-12-05T13:08:01.943Z,95113.56
2022-12-05T13:10:35.883Z,95113.03
2022-12-05T13:13:05.001Z,95115.16
2022-12-05T13:15:41.002Z,95115.09
2022-12-05T13:18:16.218Z,95116.41
2022-12-05T13:20:44.394Z,95114.34
2022-12-05T13:23:18.112Z,95110.16
2022-12-05T13:25:46.204Z,95100.19
2022-12-05T13:28:42.174Z,95109.16
2022-12-05T13:31:11.213Z,95109.22
2022-12-05T13:33:46.601Z,95110.34
2022-12-05T13:36:35.681Z,95101.19
2022-12-05T13:39:24.334Z,95098.66
2022-12-05T13:42:12.558Z,95096.00
2022-12-05T13:44:43.836Z,95102.56
2022-12-05T13:47:31.453Z,95105.53
2022-12-05T13:50:07.305Z,95101.56
2022-12-05T13:53:17.580Z,95096.59
2022-12-05T13:55:58.656Z,95110.34
2022-12-05T13:58:25.235Z,95113.84
2022-12-05T14:01:26.855Z,95129.88
2022-12-05T14:04:02.147Z,95124.94
2022-12-05T14:06:38.101Z,95133.13
2022-12-05T14:09:16.742Z,95132.91
2022-12-05T14:12:11.455Z,95138.81
2022-12-05T14:15:00.533Z,95133.22
2022-12-05T14:17:29.399Z,95129.25
2022-12-05T14:20:05.070Z,95132.47
2022-12-05T14:22:53.703Z,95117.66
2022-12-05T14:25:32.800Z,95119.31
2022-12-05T14:28:12.139Z,95129.50
2022-12-05T14:31:16.393Z,95135.44
2022-12-05T14:33:43.225Z,95141.47
2022-12-05T14:36:18.748Z,95140.22
2022-12-05T14:38:45.392Z,95138.59
2022-12-05T14:41:35.415Z,95131.88
2022-12-05T14:44:08.451Z,95136.56
2022-12-05T14:46:35.702Z,95135.22
2022-12-05T14:49:46.962Z,95139.66
2022-12-05T14:52:21.694Z,95139.00
2022-12-05T14:54:52.336Z,95135.53
2022-12-05T14:57:20.135Z,95135.16
2022-12-05T14:59:53.803Z,95135.22
2022-12-05T15:02:29.330Z,95122.31
2022-12-05T15:05:05.756Z,95118.84
2022-12-05T15:07:38.745Z,95125.66
2022-12-05T15:10:20.858Z,95135.59
2022-12-05T15:12:52.398Z,95141.63
2022-12-05T15:15:19.924Z,95131.69
2022-12-05T15:17:51.654Z,95130.75
2022-12-05T15:20:24.266Z,95126.09
2022-12-05T15:22:50.863Z,95127.72
2022-12-05T15:25:30.443Z,95132.53
2022-12-05T15:28:00.406Z,95128.25
2022-12-05T15:30:28.523Z,95133.25
2022-12-05T15:32:59.379Z,95130.41
2022-12-05T15:35:28.839Z,95134.13
2022-12-05T15:38:04.522Z,95139.91
2022-12-05T15:40:38.596Z,95144.50
2022-12-05T15:43:26.002Z,95149.97
2022-12-05T15:46:07.644Z,95148.44
2022-12-05T15:48:34.435Z,95149.56
2022-12-05T15:51:02.877Z,95155.97
2022-12-05T15:53:37.616Z,95150.25
2022-12-05T15:56:11.936Z,95155.97
2022-12-05T15:58:47.564Z,95162.22
2022-12-05T16:01:20.419Z,95163.84
2022-12-05T16:03:53.572Z,95160.97
2022-12-05T16:06:35.969Z,95168.00
2022-12-05T16:09:11.553Z,95169.03
2022-12-05T16:11:38.713Z,95161.91
2022-12-05T16:14:07.638Z,95168.44
2022-12-05T16:16:37.514Z,95174.94
2022-12-05T16:19:17.065Z,95174.41
2022-12-05T16:21:58.830Z,95173.50
2022-12-05T16:24:31.425Z,95173.38
2022-12-05T16:27:13.508Z,95172.78
2022-12-05T16:29:40.837Z,95177.06
2022-12-05T16:32:21.635Z,95176.25
2022-12-05T16:34:48.402Z,95176.34
2022-12-05T16:37:27.841Z,95176.25
2022-12-05T16:39:54.745Z,95176.25
2022-12-05T16:42:30.065Z,95168.78
2022-12-05T16:45:02.115Z,95167.69
2022-12-05T16:47:41.116Z,95172.47
2022-12-05T16:50:26.071Z,95175.81
2022-12-05T16:53:13.432Z,95175.47
2022-12-05T16:55:43.630Z,95176.22
2022-12-05T16:58:30.647Z,95185.59
2022-12-05T17:01:03.627Z,95185.69
2022-12-05T17:03:35.431Z,95185.06
2022-12-05T17:06:02.524Z,95182.63
2022-12-05T17:08:29.438Z,95185.28
2022-12-05T17:10:57.913Z,95184.53
2022-12-05T17:13:24.674Z,95180.16
2022-12-05T17:15:51.364Z,95176.91
2022-12-05T17:18:20.696Z,95187.47
2022-12-05T17:20:53.689Z,95182.00
2022-12-05T17:23:20.470Z,95178.44
2022-12-05T17:25:51.491Z,95175.69
2022-12-05T17:28:18.659Z,95178.59
2022-12-05T17:30:45.205Z,95178.88
2022-12-05T17:33:14.273Z,95179.00
2022-12-05T17:35:41.037Z,95179.47
2022-12-05T17:38:07.752Z,95175.38
2022-12-05T17:40:34.803Z,95175.38
2022-12-05T17:43:01.450Z,95177.13
2022-12-05T17:45:28.107Z,95175.59
2022-12-05T17:47:55.728Z,95172.41
2022-12-05T17:50:23.853Z,95174.13
2022-12-05T17:52:54.180Z,95173.41
2022-12-05T17:55:28.962Z,95169.25
2022-12-05T17:57:55.625Z,95170.88
2022-12-05T18:00:24.059Z,95169.97
2022-12-05T18:02:52.257Z,95168.44
2022-12-05T18:05:18.981Z,95170.25
2022-12-05T18:07:46.144Z,95176.59
2022-12-05T18:10:16.562Z,95172.56
2022-12-05T18:12:43.589Z,95179.75
2022-12-05T18:15:10.830Z,95179.03
2022-12-05T18:17:37.446Z,95179.94
2022-12-05T18:20:05.795Z,95175.06
2022-12-05T18:22:32.886Z,95173.13
2022-12-05T18:25:00.473Z,95177.66
2022-12-05T18:27:27.439Z,95179.47
2022-12-05T18:29:54.043Z,95182.53
2022-12-05T18:32:21.025Z,95182.13
2022-12-05T18:34:47.730Z,95179.03
2022-12-05T18:37:16.438Z,95189.22
2022-12-05T18:39:42.971Z,95182.41
2022-12-05T18:42:14.960Z,95175.78
2022-12-05T18:44:42.298Z,95184.22
2022-12-05T18:47:09.088Z,95184.22
2022-12-05T18:49:35.807Z,95189.94
2022-12-05T18:52:02.399Z,95192.41
2022-12-05T18:54:28.939Z,95190.25
2022-12-05T18:56:55.497Z,95190.66
2022-12-05T18:59:22.454Z,95195.69
2022-12-05T19:01:50.366Z,95186.66
2022-12-05T19:04:19.871Z,95195.13
2022-12-05T19:06:52.891Z,95192.41
2022-12-05T19:09:22.480Z,95185.75
2022-12-05T19:11:52.185Z,95189.03
2022-12-05T19:14:19.477Z,95190.66
2022-12-05T19:16:48.976Z,95197.16
2022-12-05T19:19:17.390Z,95199.69
2022-12-05T19:21:45.389Z,95189.94
2022-12-05T19:24:14.640Z,95190.13
2022-12-05T19:26:41.543Z,95194.41
2022-12-05T19:29:10.661Z,95195.50
2022-12-05T19:31:37.266Z,95193.88
2022-12-05T19:34:05.952Z,95201.63
2022-12-05T19:36:38.927Z,95194.97
2022-12-05T19:39:17.594Z,95199.06
2022-12-05T19:41:44.671Z,95191.91
2022-12-05T19:44:11.355Z,95191.28
2022-12-05T19:46:38.056Z,95195.25
2022-12-05T19:49:07.448Z,95196.06
2022-12-05T19:51:34.629Z,95196.91
2022-12-05T19:54:03.666Z,95200.44
2022-12-05T19:56:31.917Z,95199.53
2022-12-05T19:58:59.181Z,95206.63
2022-12-05T20:01:30.040Z,95207.44
2022-12-05T20:04:02.060Z,95199.44
2022-12-05T20:06:40.884Z,95199.97
2022-12-05T20:09:08.915Z,95191.72
2022-12-05T20:11:38.707Z,95195.25
2022-12-05T20:14:06.061Z,95194.94
2022-12-05T20:16:33.798Z,95200.91
2022-12-05T20:19:00.987Z,95196.56
2022-12-05T20:21:30.136Z,95196.44
2022-12-05T20:23:58.014Z,95193.19
2022-12-05T20:26:27.271Z,95192.56
2022-12-05T20:28:56.448Z,95199.28
2022-12-05T20:31:26.188Z,95199.09
2022-12-05T20:33:54.084Z,95195.66
2022-12-05T20:36:32.380Z,95189.91
2022-12-05T20:39:01.998Z,95196.44
2022-12-05T20:41:28.995Z,95186.94
2022-12-05T20:43:58.246Z,95186.13
2022-12-05T20:46:25.372Z,95184.19
2022-12-05T20:48:53.470Z,95185.78
2022-12-05T20:51:21.328Z,95171.81
2022-12-05T20:53:48.272Z,95172.19
2022-12-05T20:56:17.670Z,95172.91
2022-12-05T20:58:46.718Z,95165.75
2022-12-05T21:01:14.612Z,95161.19
2022-12-05T21:03:42.706Z,95161.97
2022-12-05T21:06:12.295Z,95163.53
2022-12-05T21:08:39.130Z,95158.03
2022-12-05T21:11:07.387Z,95161.59
2022-12-05T21:13:34.308Z,95164.63
2022-12-05T21:16:10.958Z,95167.06
2022-12-05T21:18:38.302Z,95160.66
2022-12-05T21:21:07.890Z,95160.31
2022-12-05T21:23:34.921Z,95165.34
2022-12-05T21:26:04.104Z,95171.59
2022-12-05T21:28:31.867Z,95173.25
2022-12-05T21:31:11.543Z,95173.81
2022-12-05T21:33:39.082Z,95176.06
2022-12-05T21:36:06.751Z,95177.22
2022-12-05T21:38:34.035Z,95185.13
2022-12-05T21:41:01.803Z,95185.25
2022-12-05T21:43:28.369Z,95183.88
2022-12-05T21:45:56.054Z,95180.34
2022-12-05T21:48:24.031Z,95183.16
2022-12-05T21:50:51.319Z,95188.34
2022-12-05T21:53:18.642Z,95187.78
2022-12-05T21:55:45.415Z,95187.97
2022-12-05T21:58:12.373Z,95192.97
2022-12-05T22:00:39.596Z,95192.06
2022-12-05T22:03:06.899Z,95197.53
2022-12-05T22:05:33.563Z,95187.16
2022-12-05T22:08:04.787Z,95195.97
2022-12-05T22:10:34.436Z,95188.06
2022-12-05T22:13:00.983Z,95190.00
2022-12-05T22:15:27.562Z,95201.44
2022-12-05T22:17:54.291Z,95197.69
2022-12-05T22:20:20.829Z,95193.88
2022-12-05T22:22:47.471Z,95190.63
2022-12-05T22:25:15.029Z,95189.88
2022-12-05T22:27:41.680Z,95190.09
2022-12-05T22:30:08.852Z,95188.34
2022-12-05T22:32:35.391Z,95186.72
2022-12-05T22:35:04.032Z,95180.88
2022-12-05T22:37:31.190Z,95180.34
2022-12-05T22:39:58.064Z,95179.63
2022-12-05T22:42:26.736Z,95176.88
2022-12-05T22:44:53.557Z,95184.34
2022-12-05T22:47:20.127Z,95182.16
2022-12-05T22:49:46.809Z,95185.34
2022-12-05T22:52:13.399Z,95191.00
2022-12-05T22:54:39.962Z,95176.00
2022-12-05T22:57:06.582Z,95181.34
2022-12-05T22:59:33.195Z,95170.44
2022-12-05T23:01:59.956Z,95175.47
2022-12-05T23:04:26.622Z,95176.97
2022-12-05T23:06:53.219Z,95180.25
2022-12-05T23:09:20.527Z,95175.25
2022-12-05T23:11:49.711Z,95170.72
2022-12-05T23:14:16.267Z,95169.09
2022-12-05T23:16:42.900Z,95175.31
2022-12-05T23:19:09.576Z,95171.78
2022-12-05T23:21:40.465Z,95170.91
2022-12-05T23:24:10.059Z,95170.16
2022-12-05T23:26:42.541Z,95175.13
2022-12-05T23:29:10.152Z,95180.78
2022-12-05T23:31:36.805Z,95180.25
2022-12-05T23:34:04.341Z,95182.06
2022-12-05T23:36:32.872Z,95179.69
2022-12-05T23:38:59.749Z,95176.25
2022-12-05T23:41:27.393Z,95177.16
2022-12-05T23:43:55.322Z,95179.69
2022-12-05T23:46:24.621Z,95179.78
2022-12-05T23:48:51.910Z,95178.06
2022-12-05T23:51:22.948Z,95181.34
2022-12-05T23:53:55.525Z,95186.31
2022-12-05T23:56:25.178Z,95178.53
2022-12-05T23:58:52.095Z,95175.06
